createdAt,value
2022-08-20T00:00:28.385Z,100.00
2022-08-20T00:02:57.479Z,100.00
2022-08-20T00:05:27.906Z,100.00
2022-08-20T00:07:55.093Z,100.00
2022-08-20T00:10:22.962Z,100.00
2022-08-20T00:12:51.134Z,100.00
2022-08-20T00:15:21.623Z,100.00
2022-08-20T00:17:52.390Z,100.00
2022-08-20T00:20:22.534Z,100.00
2022-08-20T00:22:48.985Z,100.00
2022-08-20T00:25:16.616Z,100.00
2022-08-20T00:27:42.988Z,100.00
2022-08-20T00:30:12.017Z,100.00
2022-08-20T00:32:53.698Z,100.00
2022-08-20T00:35:23.625Z,100.00
2022-08-20T00:37:50.633Z,100.00
2022-08-20T00:40:23.350Z,100.00
2022-08-20T00:42:58.011Z,100.00
2022-08-20T00:45:28.413Z,100.00
2022-08-20T00:47:57.775Z,100.00
2022-08-20T00:50:34.003Z,100.00
2022-08-20T00:53:02.729Z,100.00
2022-08-20T00:55:31.761Z,100.00
2022-08-20T00:58:05.289Z,99.45
2022-08-20T01:00:45.211Z,98.59
2022-08-20T01:03:15.669Z,97.34
2022-08-20T01:05:45.362Z,98.03
2022-08-20T01:08:12.395Z,98.64
2022-08-20T01:10:42.247Z,98.62
2022-08-20T01:13:12.451Z,98.55
2022-08-20T01:15:43.504Z,99.19
2022-08-20T01:18:20.186Z,100.00
2022-08-20T01:20:54.363Z,100.00
2022-08-20T01:23:36.444Z,100.00
2022-08-20T01:26:13.772Z,100.00
2022-08-20T01:28:54.579Z,100.00
2022-08-20T01:31:24.923Z,100.00
2022-08-20T01:33:53.060Z,100.00
2022-08-20T01:36:26.091Z,100.00
2022-08-20T01:38:54.083Z,100.00
2022-08-20T01:41:41.658Z,100.00
2022-08-20T01:44:10.962Z,100.00
2022-08-20T01:46:45.129Z,100.00
2022-08-20T01:49:21.137Z,100.00
2022-08-20T01:51:52.416Z,100.00
2022-08-20T01:54:19.010Z,100.00
2022-08-20T01:57:00.215Z,100.00
2022-08-20T01:59:27.619Z,100.00
2022-08-20T02:01:55.088Z,100.00
2022-08-20T02:04:22.343Z,100.00
2022-08-20T02:06:56.280Z,100.00
2022-08-20T02:09:24.149Z,100.00
2022-08-20T02:11:50.582Z,100.00
2022-08-20T02:14:17.011Z,100.00
2022-08-20T02:16:54.564Z,100.00
2022-08-20T02:19:45.356Z,100.00
2022-08-20T02:22:23.627Z,100.00
2022-08-20T02:24:51.272Z,100.00
2022-08-20T02:27:18.830Z,100.00
2022-08-20T02:29:45.719Z,100.00
2022-08-20T02:32:24.902Z,100.00
2022-08-20T02:34:58.859Z,100.00
2022-08-20T02:37:25.233Z,100.00
2022-08-20T02:39:51.687Z,100.00
2022-08-20T02:42:18.176Z,100.00
2022-08-20T02:44:44.594Z,100.00
2022-08-20T02:47:10.956Z,100.00
2022-08-20T02:49:37.585Z,100.00
2022-08-20T02:52:04.713Z,100.00
2022-08-20T02:54:31.168Z,100.00
2022-08-20T02:56:57.592Z,100.00
2022-08-20T02:59:24.048Z,100.00
2022-08-20T03:01:59.420Z,100.00
2022-08-20T03:04:29.192Z,100.00
2022-08-20T03:06:56.209Z,100.00
2022-08-20T03:09:22.704Z,100.00
2022-08-20T03:11:49.245Z,100.00
2022-08-20T03:14:15.655Z,100.00
2022-08-20T03:16:43.150Z,100.00
2022-08-20T03:19:09.586Z,100.00
2022-08-20T03:21:36.018Z,100.00
2022-08-20T03:24:02.585Z,100.00
2022-08-20T03:26:28.967Z,100.00
2022-08-20T03:28:55.348Z,100.00
2022-08-20T03:31:21.830Z,100.00
2022-08-20T03:33:48.914Z,100.00
2022-08-20T03:36:22.056Z,100.00
2022-08-20T03:38:55.296Z,100.00
2022-08-20T03:41:21.823Z,100.00
2022-08-20T03:43:48.172Z,100.00
2022-08-20T03:46:23.040Z,100.00
2022-08-20T03:48:59.567Z,100.00
2022-08-20T03:51:30.982Z,100.00
2022-08-20T03:53:58.225Z,100.00
2022-08-20T03:56:25.547Z,100.00
2022-08-20T03:58:52.257Z,100.00
2022-08-20T04:01:37.114Z,100.00
2022-08-20T04:04:05.087Z,100.00
2022-08-20T04:06:31.793Z,100.00
2022-08-20T04:08:58.349Z,100.00
2022-08-20T04:11:24.811Z,100.00
2022-08-20T04:13:51.387Z,100.00
2022-08-20T04:16:19.334Z,100.00
2022-08-20T04:18:56.215Z,100.00
2022-08-20T04:21:33.071Z,100.00
2022-08-20T04:24:01.051Z,100.00
2022-08-20T04:26:27.713Z,100.00
2022-08-20T04:28:55.341Z,100.00
2022-08-20T04:31:25.349Z,100.00
2022-08-20T04:33:52.379Z,100.00
2022-08-20T04:36:18.773Z,100.00
2022-08-20T04:38:50.117Z,100.00
2022-08-20T04:41:22.572Z,100.00
2022-08-20T04:43:53.532Z,100.00
2022-08-20T04:46:21.746Z,100.00
2022-08-20T04:48:48.983Z,100.00
2022-08-20T04:51:18.049Z,100.00
2022-08-20T04:53:45.130Z,100.00
2022-08-20T04:56:23.147Z,100.00
2022-08-20T04:58:51.196Z,100.00
2022-08-20T05:01:17.902Z,100.00
2022-08-20T05:03:45.860Z,100.00
2022-08-20T05:06:12.395Z,100.00
2022-08-20T05:08:39.788Z,100.00
2022-08-20T05:11:33.669Z,100.00
2022-08-20T05:13:55.693Z,100.00
2022-08-20T05:16:24.427Z,100.00
2022-08-20T05:18:52.434Z,100.00
2022-08-20T05:21:20.992Z,100.00
2022-08-20T05:23:48.994Z,100.00
2022-08-20T05:26:15.894Z,100.00
2022-08-20T05:28:52.709Z,100.00
2022-08-20T05:31:32.261Z,100.00
2022-08-20T05:34:09.240Z,100.00
2022-08-20T05:36:36.802Z,100.00
2022-08-20T05:39:03.463Z,100.00
2022-08-20T05:41:30.430Z,100.00
2022-08-20T05:44:01.007Z,100.00
2022-08-20T05:46:28.446Z,100.00
2022-08-20T05:48:54.839Z,100.00
2022-08-20T05:51:26.097Z,100.00
2022-08-20T05:53:52.515Z,100.00
2022-08-20T05:56:18.927Z,100.00
2022-08-20T05:58:47.781Z,100.00
2022-08-20T06:01:17.690Z,100.00
2022-08-20T06:04:19.382Z,100.00
2022-08-20T06:06:47.501Z,100.00
2022-08-20T06:09:31.396Z,100.00
2022-08-20T06:12:03.947Z,100.00
2022-08-20T06:14:31.371Z,100.00
2022-08-20T06:17:10.846Z,100.00
2022-08-20T06:19:40.615Z,100.00
2022-08-20T06:22:19.083Z,100.00
2022-08-20T06:24:53.909Z,100.00
2022-08-20T06:27:20.926Z,100.00
2022-08-20T06:29:48.015Z,100.00
2022-08-20T06:32:14.829Z,100.00
2022-08-20T06:34:50.496Z,100.00
2022-08-20T06:37:25.987Z,100.00
2022-08-20T06:40:03.153Z,100.00
2022-08-20T06:42:29.650Z,100.00
2022-08-20T06:44:56.006Z,100.00
2022-08-20T06:47:22.662Z,100.00
2022-08-20T06:49:49.069Z,100.00
2022-08-20T06:52:16.939Z,100.00
2022-08-20T06:54:44.588Z,100.00
2022-08-20T06:57:10.957Z,100.00
2022-08-20T06:59:37.358Z,100.00
2022-08-20T07:02:04.514Z,100.00
2022-08-20T07:04:30.860Z,100.00
2022-08-20T07:06:57.657Z,100.00
2022-08-20T07:09:26.294Z,100.00
2022-08-20T07:11:52.934Z,100.00
2022-08-20T07:14:19.740Z,100.00
2022-08-20T07:16:47.266Z,100.00
2022-08-20T07:19:14.194Z,100.00
2022-08-20T07:21:40.588Z,100.00
2022-08-20T07:24:07.158Z,100.00
2022-08-20T07:26:34.424Z,100.00
2022-08-20T07:29:01.241Z,100.00
2022-08-20T07:31:46.764Z,100.00
2022-08-20T07:34:14.754Z,100.00
2022-08-20T07:36:41.337Z,100.00
2022-08-20T07:39:07.746Z,100.00
2022-08-20T07:41:35.916Z,100.00
2022-08-20T07:44:02.538Z,98.93
2022-08-20T07:46:31.635Z,97.93
2022-08-20T07:48:58.346Z,96.26
2022-08-20T07:51:24.824Z,94.78
2022-08-20T07:53:51.934Z,93.08
2022-08-20T07:56:21.576Z,92.79
2022-08-20T07:58:52.081Z,91.62
2022-08-20T08:01:26.074Z,92.18
2022-08-20T08:03:52.851Z,90.54
2022-08-20T08:06:29.098Z,89.45
2022-08-20T08:09:11.354Z,89.75
2022-08-20T08:11:46.337Z,88.33
2022-08-20T08:14:14.362Z,86.72
2022-08-20T08:16:45.239Z,86.56
2022-08-20T08:19:14.640Z,86.56
2022-08-20T08:21:41.307Z,85.77
2022-08-20T08:24:07.720Z,83.38
2022-08-20T08:26:34.180Z,83.36
2022-08-20T08:29:00.535Z,84.01
2022-08-20T08:31:27.073Z,84.64
2022-08-20T08:33:53.486Z,84.76
2022-08-20T08:36:20.204Z,84.40
2022-08-20T08:38:46.923Z,84.22
2022-08-20T08:41:31.657Z,85.11
2022-08-20T08:44:10.410Z,83.57
2022-08-20T08:46:41.677Z,82.85
2022-08-20T08:49:12.657Z,82.63
2022-08-20T08:51:47.747Z,81.47
2022-08-20T08:54:17.265Z,80.86
2022-08-20T08:56:43.972Z,80.15
2022-08-20T08:59:17.535Z,78.82
2022-08-20T09:01:53.707Z,76.03
2022-08-20T09:04:30.269Z,74.86
2022-08-20T09:06:57.355Z,74.24
2022-08-20T09:09:33.714Z,73.97
2022-08-20T09:12:09.823Z,74.10
2022-08-20T09:14:37.825Z,71.63
2022-08-20T09:17:05.395Z,72.99
2022-08-20T09:19:31.962Z,70.67
2022-08-20T09:21:58.489Z,68.98
2022-08-20T09:24:25.635Z,70.63
2022-08-20T09:26:51.996Z,69.63
2022-08-20T09:29:18.375Z,69.60
2022-08-20T09:31:45.190Z,70.01
2022-08-20T09:34:12.758Z,70.42
2022-08-20T09:36:39.140Z,70.74
2022-08-20T09:39:05.495Z,70.96
2022-08-20T09:41:33.682Z,72.24
2022-08-20T09:44:01.335Z,68.23
2022-08-20T09:46:27.822Z,68.06
2022-08-20T09:48:54.747Z,66.89
2022-08-20T09:51:21.673Z,67.73
2022-08-20T09:53:48.873Z,67.42
2022-08-20T09:56:15.464Z,67.27
2022-08-20T09:58:51.080Z,66.78
2022-08-20T10:01:20.027Z,67.14
2022-08-20T10:03:48.723Z,65.79
2022-08-20T10:06:20.101Z,66.52
2022-08-20T10:08:47.678Z,65.97
2022-08-20T10:11:14.083Z,63.78
2022-08-20T10:13:40.631Z,63.75
2022-08-20T10:16:07.186Z,64.47
2022-08-20T10:18:35.580Z,65.54
2022-08-20T10:21:02.090Z,67.39
2022-08-20T10:23:28.500Z,65.16
2022-08-20T10:25:54.919Z,65.54
2022-08-20T10:28:21.315Z,63.04
2022-08-20T10:30:47.760Z,62.40
2022-08-20T10:33:14.141Z,61.97
2022-08-20T10:35:40.521Z,64.26
2022-08-20T10:38:06.898Z,61.89
2022-08-20T10:40:33.409Z,59.76
2022-08-20T10:43:00.077Z,60.05
2022-08-20T10:45:26.454Z,61.91
2022-08-20T10:47:52.950Z,61.96
2022-08-20T10:50:20.005Z,60.62
2022-08-20T10:52:47.027Z,60.76
2022-08-20T10:55:13.741Z,60.14
2022-08-20T10:57:41.443Z,60.35
2022-08-20T11:00:12.041Z,58.73
2022-08-20T11:02:38.566Z,57.81
2022-08-20T11:05:06.706Z,55.95
2022-08-20T11:07:55.737Z,55.11
2022-08-20T11:10:26.783Z,57.96
2022-08-20T11:12:53.569Z,56.87
2022-08-20T11:15:20.195Z,58.76
2022-08-20T11:17:46.940Z,58.50
2022-08-20T11:20:15.924Z,59.95
2022-08-20T11:22:42.359Z,62.11
2022-08-20T11:25:09.322Z,61.46
2022-08-20T11:27:41.608Z,61.81
2022-08-20T11:30:18.414Z,64.04
2022-08-20T11:32:44.959Z,62.84
2022-08-20T11:35:40.630Z,63.31
2022-08-20T11:38:01.086Z,61.82
2022-08-20T11:40:29.259Z,61.63
2022-08-20T11:43:14.282Z,62.66
2022-08-20T11:45:41.735Z,60.71
2022-08-20T11:48:08.076Z,59.25
2022-08-20T11:50:34.499Z,60.74
2022-08-20T11:53:01.650Z,59.44
2022-08-20T11:55:30.761Z,59.08
2022-08-20T11:57:59.909Z,60.34
2022-08-20T12:00:32.220Z,57.74
2022-08-20T12:03:01.413Z,58.64
2022-08-20T12:05:29.679Z,55.24
2022-08-20T12:07:57.163Z,53.19
2022-08-20T12:10:25.964Z,54.83
2022-08-20T12:12:52.345Z,56.11
2022-08-20T12:15:19.794Z,55.71
2022-08-20T12:17:46.164Z,55.01
2022-08-20T12:20:14.285Z,53.63
2022-08-20T12:22:40.853Z,53.24
2022-08-20T12:25:08.471Z,51.96
2022-08-20T12:27:37.169Z,52.07
2022-08-20T12:30:13.472Z,51.48
2022-08-20T12:32:40.623Z,51.38
2022-08-20T12:35:08.745Z,51.39
2022-08-20T12:37:36.100Z,49.37
2022-08-20T12:40:06.427Z,51.53
2022-08-20T12:42:32.817Z,47.97
2022-08-20T12:45:00.185Z,48.57
2022-08-20T12:47:36.639Z,49.31
2022-08-20T12:50:07.636Z,46.91
2022-08-20T12:52:34.234Z,48.22
2022-08-20T12:55:02.030Z,49.07
2022-08-20T12:57:31.663Z,49.27
2022-08-20T13:00:01.120Z,49.52
2022-08-20T13:02:30.425Z,50.55
2022-08-20T13:04:58.352Z,49.20
2022-08-20T13:07:27.735Z,49.17
2022-08-20T13:09:54.169Z,48.45
2022-08-20T13:12:20.680Z,49.14
2022-08-20T13:14:47.020Z,47.69
2022-08-20T13:17:17.449Z,47.34
2022-08-20T13:19:45.204Z,48.85
2022-08-20T13:22:13.519Z,49.07
2022-08-20T13:24:39.992Z,49.25
2022-08-20T13:27:10.723Z,48.71
2022-08-20T13:29:37.973Z,49.29
2022-08-20T13:32:05.426Z,48.53
2022-08-20T13:34:31.877Z,49.08
2022-08-20T13:36:58.326Z,50.17
2022-08-20T13:39:24.769Z,50.26
2022-08-20T13:41:51.198Z,48.05
2022-08-20T13:44:18.238Z,49.25
2022-08-20T13:46:44.678Z,48.57
2022-08-20T13:49:11.075Z,48.38
2022-08-20T13:51:37.425Z,48.62
2022-08-20T13:54:03.923Z,46.40
2022-08-20T13:56:30.344Z,45.25
2022-08-20T13:58:56.701Z,45.62
2022-08-20T14:01:23.157Z,46.26
2022-08-20T14:03:49.624Z,46.88
2022-08-20T14:06:15.984Z,45.59
2022-08-20T14:08:42.428Z,46.03
2022-08-20T14:11:08.791Z,46.87
2022-08-20T14:13:40.366Z,46.34
2022-08-20T14:16:21.445Z,46.76
2022-08-20T14:18:53.690Z,45.93
2022-08-20T14:21:20.152Z,45.43
2022-08-20T14:23:46.471Z,46.24
2022-08-20T14:26:12.855Z,45.81
2022-08-20T14:28:39.335Z,45.77
2022-08-20T14:31:05.931Z,45.83
2022-08-20T14:33:32.427Z,45.24
2022-08-20T14:35:58.789Z,46.71
2022-08-20T14:38:25.298Z,45.93
2022-08-20T14:40:51.663Z,42.81
2022-08-20T14:43:20.686Z,45.12
2022-08-20T14:45:49.802Z,44.09
2022-08-20T14:48:16.198Z,44.27
2022-08-20T14:50:42.769Z,42.62
2022-08-20T14:53:09.255Z,44.18
2022-08-20T14:55:37.526Z,42.70
2022-08-20T14:58:09.824Z,42.40
2022-08-20T15:00:36.975Z,42.95
2022-08-20T15:03:03.406Z,42.28
2022-08-20T15:05:30.203Z,43.23
2022-08-20T15:07:57.842Z,44.29
2022-08-20T15:10:29.195Z,43.13
2022-08-20T15:12:55.759Z,43.81
2022-08-20T15:15:23.236Z,44.23
2022-08-20T15:17:52.980Z,46.10
2022-08-20T15:20:21.584Z,46.84
2022-08-20T15:22:49.556Z,47.22
2022-08-20T15:25:18.758Z,48.36
2022-08-20T15:27:45.898Z,49.46
2022-08-20T15:30:19.010Z,49.75
2022-08-20T15:32:45.849Z,49.43
2022-08-20T15:35:13.152Z,49.30
2022-08-20T15:37:45.087Z,49.86
2022-08-20T15:40:15.986Z,50.50
2022-08-20T15:42:43.136Z,50.70
2022-08-20T15:45:21.973Z,51.37
2022-08-20T15:48:18.016Z,51.52
2022-08-20T15:50:47.290Z,52.46
2022-08-20T15:53:51.364Z,50.76
2022-08-20T15:56:23.687Z,51.27
2022-08-20T15:58:59.029Z,50.56
2022-08-20T16:01:54.666Z,50.27
2022-08-20T16:04:45.600Z,50.42
2022-08-20T16:07:22.820Z,51.84
2022-08-20T16:10:03.421Z,52.04
2022-08-20T16:12:38.139Z,50.59
2022-08-20T16:15:11.670Z,52.28
2022-08-20T16:17:45.205Z,52.45
2022-08-20T16:20:35.629Z,52.73
2022-08-20T16:23:03.761Z,52.29
2022-08-20T16:25:38.922Z,53.16
2022-08-20T16:28:24.271Z,52.76
2022-08-20T16:30:59.353Z,52.45
2022-08-20T16:33:39.099Z,52.82
2022-08-20T16:36:17.644Z,52.73
2022-08-20T16:38:59.098Z,53.92
2022-08-20T16:41:34.721Z,54.21
2022-08-20T16:44:08.575Z,54.27
2022-08-20T16:46:40.383Z,53.73
2022-08-20T16:49:13.386Z,54.23
2022-08-20T16:51:41.349Z,54.76
2022-08-20T16:54:09.235Z,55.20
2022-08-20T16:56:49.892Z,54.57
2022-08-20T16:59:27.245Z,55.24
2022-08-20T17:02:20.971Z,55.99
2022-08-20T17:04:58.548Z,56.16
2022-08-20T17:07:43.305Z,56.64
2022-08-20T17:10:17.966Z,55.57
2022-08-20T17:12:45.112Z,55.74
2022-08-20T17:15:26.210Z,55.98
2022-08-20T17:17:55.601Z,55.92
2022-08-20T17:20:29.161Z,56.21
2022-08-20T17:23:10.997Z,55.54
2022-08-20T17:25:38.304Z,54.87
2022-08-20T17:28:21.530Z,55.87
2022-08-20T17:30:47.967Z,55.58
2022-08-20T17:33:36.510Z,53.26
2022-08-20T17:36:29.286Z,54.15
2022-08-20T17:39:01.001Z,52.66
2022-08-20T17:41:31.033Z,52.53
2022-08-20T17:44:07.368Z,52.11
2022-08-20T17:46:41.431Z,51.15
2022-08-20T17:49:11.340Z,52.32
2022-08-20T17:51:42.418Z,51.28
2022-08-20T17:54:25.828Z,52.03
2022-08-20T17:56:57.980Z,51.77
2022-08-20T18:00:00.708Z,52.57
2022-08-20T18:02:26.786Z,53.07
2022-08-20T18:04:55.260Z,53.57
2022-08-20T18:07:30.339Z,54.21
2022-08-20T18:10:03.074Z,54.44
2022-08-20T18:12:35.140Z,54.15
2022-08-20T18:15:21.247Z,54.34
2022-08-20T18:17:50.107Z,55.43
2022-08-20T18:20:41.400Z,54.97
2022-08-20T18:23:16.162Z,55.72
2022-08-20T18:25:49.621Z,55.87
2022-08-20T18:28:20.810Z,56.65
2022-08-20T18:31:00.380Z,56.41
2022-08-20T18:33:34.725Z,57.42
2022-08-20T18:36:19.501Z,57.88
2022-08-20T18:39:08.553Z,58.23
2022-08-20T18:41:40.138Z,58.03
2022-08-20T18:44:09.548Z,57.88
2022-08-20T18:46:38.514Z,58.94
2022-08-20T18:49:07.662Z,59.16
2022-08-20T18:51:50.555Z,60.99
2022-08-20T18:54:32.318Z,60.81
2022-08-20T18:57:24.656Z,60.25
2022-08-20T19:00:10.353Z,61.48
2022-08-20T19:02:39.295Z,62.46
2022-08-20T19:05:09.685Z,62.05
2022-08-20T19:07:43.247Z,62.91
2022-08-20T19:10:33.341Z,62.18
2022-08-20T19:13:15.906Z,63.46
2022-08-20T19:15:48.060Z,63.30
2022-08-20T19:18:30.271Z,63.45
2022-08-20T19:21:00.480Z,64.13
2022-08-20T19:23:29.747Z,64.88
2022-08-20T19:25:59.814Z,65.86
2022-08-20T19:28:58.387Z,66.18
2022-08-20T19:31:32.180Z,67.47
2022-08-20T19:34:21.772Z,67.71
2022-08-20T19:37:28.157Z,68.51
2022-08-20T19:39:51.723Z,68.72
2022-08-20T19:42:31.102Z,69.31
2022-08-20T19:45:05.962Z,68.99
2022-08-20T19:47:40.248Z,70.01
2022-08-20T19:50:26.270Z,69.34
2022-08-20T19:53:06.596Z,69.83
2022-08-20T19:55:36.988Z,70.27
2022-08-20T19:58:17.887Z,70.48
2022-08-20T20:00:53.934Z,70.54
2022-08-20T20:03:27.013Z,71.62
2022-08-20T20:06:31.120Z,71.21
2022-08-20T20:09:07.338Z,71.86
2022-08-20T20:11:40.986Z,72.99
2022-08-20T20:14:13.259Z,73.28
2022-08-20T20:16:40.965Z,74.30
2022-08-20T20:19:25.954Z,75.61
2022-08-20T20:22:07.610Z,76.32
2022-08-20T20:24:50.620Z,77.60
2022-08-20T20:27:26.208Z,78.50
2022-08-20T20:29:59.884Z,78.31
2022-08-20T20:32:27.649Z,77.91
2022-08-20T20:34:57.986Z,77.93
2022-08-20T20:37:50.088Z,77.80
2022-08-20T20:40:30.343Z,77.03
2022-08-20T20:43:09.276Z,77.58
2022-08-20T20:45:40.200Z,78.04
2022-08-20T20:48:21.767Z,78.10
2022-08-20T20:50:50.809Z,78.52
2022-08-20T20:53:50.839Z,78.59
2022-08-20T20:56:34.718Z,78.82
2022-08-20T20:59:06.586Z,79.74
2022-08-20T21:01:49.972Z,80.09
2022-08-20T21:04:18.454Z,80.39
2022-08-20T21:06:45.026Z,80.69
2022-08-20T21:09:11.887Z,81.49
2022-08-20T21:11:38.222Z,81.91
2022-08-20T21:14:04.704Z,82.78
2022-08-20T21:16:31.203Z,83.52
2022-08-20T21:18:58.238Z,83.93
2022-08-20T21:21:24.620Z,84.39
2022-08-20T21:23:50.986Z,85.19
2022-08-20T21:26:17.402Z,85.64
2022-08-20T21:28:43.842Z,86.83
2022-08-20T21:31:10.190Z,86.59
2022-08-20T21:33:36.540Z,86.27
2022-08-20T21:36:03.205Z,85.71
2022-08-20T21:38:29.816Z,85.32
2022-08-20T21:40:56.434Z,85.05
2022-08-20T21:43:25.258Z,85.07
2022-08-20T21:45:51.865Z,85.33
2022-08-20T21:48:18.658Z,85.87
2022-08-20T21:50:45.025Z,86.19
2022-08-20T21:53:13.172Z,87.31
2022-08-20T21:55:40.626Z,88.32
2022-08-20T21:58:08.390Z,89.39
2022-08-20T22:00:49.274Z,91.22
2022-08-20T22:03:16.449Z,91.04
2022-08-20T22:05:47.465Z,90.52
2022-08-20T22:08:13.904Z,89.95
2022-08-20T22:10:40.339Z,89.33
2022-08-20T22:13:07.151Z,88.98
2022-08-20T22:15:33.656Z,88.68
2022-08-20T22:18:00.039Z,88.67
2022-08-20T22:20:27.527Z,88.74
2022-08-20T22:22:54.149Z,89.02
2022-08-20T22:25:20.566Z,89.02
2022-08-20T22:27:46.923Z,89.15
2022-08-20T22:30:13.498Z,89.03
2022-08-20T22:32:51.573Z,89.33
2022-08-20T22:35:19.833Z,90.50
2022-08-20T22:37:46.322Z,91.22
2022-08-20T22:40:13.239Z,91.79
2022-08-20T22:42:39.638Z,91.62
2022-08-20T22:45:14.498Z,91.94
2022-08-20T22:47:43.027Z,91.49
2022-08-20T22:50:10.898Z,90.69
2022-08-20T22:52:38.909Z,90.70
2022-08-20T22:55:06.177Z,90.54
2022-08-20T22:57:34.198Z,90.40
2022-08-20T23:00:00.964Z,90.05
2022-08-20T23:02:27.607Z,90.19
2022-08-20T23:04:54.019Z,91.87
2022-08-20T23:07:20.762Z,92.83
2022-08-20T23:09:47.175Z,93.03
2022-08-20T23:12:13.564Z,93.52
2022-08-20T23:14:39.958Z,93.49
2022-08-20T23:17:14.047Z,92.98
2022-08-20T23:19:41.676Z,93.46
2022-08-20T23:22:08.585Z,93.83
2022-08-20T23:24:35.561Z,93.98
2022-08-20T23:27:02.343Z,94.29
2022-08-20T23:29:29.026Z,95.18
2022-08-20T23:31:56.649Z,95.75
2022-08-20T23:34:24.224Z,95.42
2022-08-20T23:36:52.299Z,95.43
2022-08-20T23:39:19.478Z,95.62
2022-08-20T23:41:47.524Z,95.26
2022-08-20T23:44:25.885Z,95.63
2022-08-20T23:46:57.085Z,96.08
2022-08-20T23:49:23.560Z,96.51
2022-08-20T23:51:49.942Z,96.46
2022-08-20T23:54:16.342Z,96.18
2022-08-20T23:56:42.744Z,96.21
2022-08-20T23:59:09.271Z,95.47
